Time;durP1;ratioP1;P1;durP2;ratioP2;P2;SDS_P1;SDS_P2;PMS_P1;PMS_P2;Temp;Humidity;BMP_temperature;BMP_pressure;BME280_temperature;BME280_humidity;BME280_pressure;Samples;Min_cycle;Max_cycle;Signal;HPM_P1;HPM_P2
2022/04/07 00:00:58;;;;;;;30.05;17.33;;;15.90;52.80;;;;;;5056201;28;20021;-86
2022/04/07 00:03:23;;;;;;;31.75;17.50;;;15.70;52.90;;;;;;5073804;28;20028;-86
2022/04/07 00:05:49;;;;;;;37.92;19.63;;;15.60;53.40;;;;;;5073577;28;20021;-86
2022/04/07 00:08:15;;;;;;;35.65;19.60;;;15.60;53.80;;;;;;5055550;28;20455;-85
2022/04/07 00:10:41;;;;;;;35.25;18.00;;;15.60;53.30;;;;;;5056208;28;20021;-86
2022/04/07 00:13:07;;;;;;;36.25;19.98;;;15.70;53.00;;;;;;5055735;28;20107;-85
2022/04/07 00:15:33;;;;;;;38.55;19.42;;;15.40;53.30;;;;;;5055607;28;20123;-86
2022/04/07 00:17:59;;;;;;;31.25;17.50;;;15.20;53.50;;;;;;5055897;28;20124;-85
2022/04/07 00:20:26;;;;;;;30.73;18.33;;;15.10;54.10;;;;;;5074275;28;20109;-85
2022/04/07 00:22:53;;;;;;;32.10;19.35;;;15.20;54.20;;;;;;5073503;28;20467;-85
2022/04/07 00:25:19;;;;;;;27.92;17.08;;;15.00;54.60;;;;;;5055363;28;20017;-85
2022/04/07 00:27:44;;;;;;;25.55;15.43;;;15.20;54.60;;;;;;5073464;28;20487;-85
2022/04/07 00:30:13;;;;;;;23.77;15.98;;;15.00;54.20;;;;;;5058771;28;20047;-84
2022/04/07 00:32:44;;;;;;;25.23;15.60;;;14.90;54.90;;;;;;5059878;28;20034;-85
2022/04/07 00:35:10;;;;;;;27.58;16.60;;;14.90;55.20;;;;;;5059450;28;20448;-84
2022/04/07 00:37:37;;;;;;;29.02;18.83;;;14.70;55.60;;;;;;5077593;28;20104;-85
2022/04/07 00:40:04;;;;;;;30.95;18.23;;;14.70;56.30;;;;;;5059306;28;20034;-85
2022/04/07 00:42:30;;;;;;;24.55;16.25;;;15.10;55.50;;;;;;5077258;28;20379;-86
2022/04/07 00:44:55;;;;;;;27.85;18.08;;;15.20;54.60;;;;;;5077485;28;20475;-85
2022/04/07 00:47:22;;;;;;;27.85;16.58;;;15.20;55.90;;;;;;5077076;28;20032;-84
2022/04/07 00:49:48;;;;;;;29.90;17.77;;;15.00;54.30;;;;;;5076834;28;20024;-83
2022/04/07 00:52:15;;;;;;;24.30;15.85;;;15.30;54.10;;;;;;5059187;28;20025;-85
2022/04/07 00:54:41;;;;;;;28.63;17.63;;;15.40;54.00;;;;;;5076890;28;20111;-86
2022/04/07 00:57:14;;;;;;;26.58;16.77;;;15.30;55.40;;;;;;5077179;28;20064;-86
2022/04/07 00:59:41;;;;;;;25.10;15.63;;;15.40;54.10;;;;;;5058639;28;20027;-85
2022/04/07 01:02:09;;;;;;;23.15;15.63;;;15.30;53.70;;;;;;5058744;28;20078;-85
2022/04/07 01:04:35;;;;;;;20.88;14.25;;;15.30;55.40;;;;;;5059382;28;20021;-86
2022/04/07 01:07:01;;;;;;;19.83;14.30;;;15.10;55.30;;;;;;5076389;28;20035;-85
2022/04/07 01:09:28;;;;;;;20.25;13.02;;;14.40;57.40;;;;;;5058977;28;20049;-85
2022/04/07 01:11:55;;;;;;;21.33;12.75;;;14.30;57.50;;;;;;5058971;28;20091;-86
2022/04/07 01:14:20;;;;;;;20.27;13.05;;;14.60;57.00;;;;;;5076743;28;20016;-86
2022/04/07 01:16:46;;;;;;;20.13;13.68;;;15.00;56.90;;;;;;5058718;28;20493;-85
2022/04/07 01:19:11;;;;;;;17.50;11.10;;;15.20;56.90;;;;;;5058643;28;20482;-85
2022/04/07 01:21:37;;;;;;;21.83;11.77;;;15.40;55.70;;;;;;5076383;28;20101;-84
2022/04/07 01:24:08;;;;;;;16.52;10.43;;;15.50;55.40;;;;;;5076809;28;20021;-84
2022/04/07 01:26:37;;;;;;;;;;;15.70;54.50;;;;;;5077120;28;20024;-84
2022/04/07 01:29:04;;;;;;;18.00;11.23;;;15.40;55.40;;;;;;5076401;28;20358;-86
2022/04/07 01:31:31;;;;;;;16.08;11.55;;;15.60;54.30;;;;;;5076136;28;20023;-86
2022/04/07 01:33:58;;;;;;;17.15;11.77;;;15.60;53.30;;;;;;5076345;28;20027;-86
2022/04/07 01:36:26;;;;;;;18.38;11.77;;;15.50;53.40;;;;;;5058774;28;20565;-86
2022/04/07 01:38:54;;;;;;;16.02;10.25;;;15.60;53.90;;;;;;5076206;28;20356;-86
2022/04/07 01:41:21;;;;;;;11.10;7.78;;;15.50;54.10;;;;;;5058133;28;20029;-84
2022/04/07 01:43:48;;;;;;;10.48;7.68;;;15.50;53.90;;;;;;5058457;28;20020;-85
2022/04/07 01:46:14;;;;;;;11.45;7.35;;;15.50;54.40;;;;;;5076122;28;20052;-84
2022/04/07 01:48:42;;;;;;;10.80;7.75;;;15.30;54.00;;;;;;5076015;28;20044;-86
2022/04/07 01:51:10;;;;;;;11.73;7.43;;;15.40;54.10;;;;;;5076008;28;20078;-86
2022/04/07 01:53:37;;;;;;;12.68;8.13;;;15.80;53.70;;;;;;5057474;28;20040;-84
2022/04/07 01:56:05;;;;;;;10.55;8.07;;;16.00;52.90;;;;;;5075349;28;20479;-85
2022/04/07 01:58:31;;;;;;;12.35;7.93;;;16.30;52.40;;;;;;5075906;28;20391;-84
2022/04/07 02:00:57;;;;;;;10.43;7.25;;;16.30;52.40;;;;;;5075802;28;20375;-86
2022/04/07 02:03:23;;;;;;;14.05;7.97;;;16.30;52.00;;;;;;5075436;28;20024;-85
2022/04/07 02:05:48;;;;;;;14.55;9.68;;;15.90;52.50;;;;;;5057977;28;20021;-85
2022/04/07 02:08:14;;;;;;;16.92;9.70;;;15.30;52.90;;;;;;5075109;28;20044;-85
2022/04/07 02:10:40;;;;;;;24.45;12.52;;;14.80;54.00;;;;;;5075527;28;20472;-83
2022/04/07 02:13:06;;;;;;;17.63;11.25;;;14.80;55.10;;;;;;5075244;28;20090;-85
2022/04/07 02:15:31;;;;;;;14.60;9.73;;;14.70;55.70;;;;;;5075099;28;20090;-86
2022/04/07 02:17:57;;;;;;;17.08;10.48;;;14.60;56.40;;;;;;5075259;28;20787;-86
2022/04/07 02:20:23;;;;;;;13.52;9.10;;;14.40;57.20;;;;;;5057664;28;20482;-85
2022/04/07 02:22:48;;;;;;;13.25;8.70;;;14.10;57.70;;;;;;5057492;28;20029;-86
2022/04/07 02:25:14;;;;;;;14.23;9.52;;;14.20;57.70;;;;;;5057465;28;20364;-83
2022/04/07 02:27:42;;;;;;;14.43;9.35;;;14.40;56.00;;;;;;5057476;28;20034;-85
2022/04/07 02:30:10;;;;;;;14.90;9.93;;;14.40;56.10;;;;;;5075219;28;20016;-86
2022/04/07 02:32:36;;;;;;;16.92;10.25;;;14.60;55.30;;;;;;5074767;28;20025;-87
2022/04/07 02:35:02;;;;;;;14.50;10.18;;;14.70;54.90;;;;;;5075204;28;20478;-87
2022/04/07 02:37:28;;;;;;;14.70;9.18;;;14.80;54.60;;;;;;5063732;28;20091;-87
2022/04/07 02:39:54;;;;;;;14.85;10.25;;;14.70;55.70;;;;;;5037441;28;20025;-86
2022/04/07 02:42:22;;;;;;;16.08;10.52;;;14.60;55.00;;;;;;5045691;28;20467;-86
2022/04/07 02:44:48;;;;;;;17.25;10.65;;;14.30;55.20;;;;;;5074884;28;20086;-86
2022/04/07 02:47:13;;;;;;;18.35;11.63;;;14.40;55.30;;;;;;5056694;28;20115;-86
2022/04/07 02:49:39;;;;;;;21.08;10.48;;;14.40;55.10;;;;;;5075364;28;20027;-84
2022/04/07 02:52:09;;;;;;;19.58;10.98;;;13.80;55.30;;;;;;5056419;28;20028;-83
2022/04/07 02:54:35;;;;;;;16.45;10.40;;;12.90;57.20;;;;;;5075077;28;20036;-83
2022/04/07 02:57:01;;;;;;;15.07;10.07;;;12.50;59.10;;;;;;5074699;28;20046;-85
2022/04/07 02:59:27;;;;;;;18.02;10.98;;;12.20;61.10;;;;;;5074883;28;20086;-84
2022/04/07 03:01:56;;;;;;;13.30;8.35;;;12.30;61.40;;;;;;5074645;28;20032;-84
2022/04/07 03:04:25;;;;;;;11.48;8.48;;;12.90;60.10;;;;;;5056663;28;20383;-80
2022/04/07 03:06:52;;;;;;;12.77;8.80;;;13.30;58.80;;;;;;5074725;28;20521;-84
2022/04/07 03:09:19;;;;;;;12.90;8.70;;;13.10;59.10;;;;;;5074636;28;20040;-86
2022/04/07 03:11:46;;;;;;;11.90;8.85;;;11.90;62.00;;;;;;5074122;28;20514;-83
2022/04/07 03:14:12;;;;;;;12.70;8.95;;;11.40;65.00;;;;;;5074536;28;20020;-84
2022/04/07 03:16:39;;;;;;;12.30;8.38;;;11.40;65.00;;;;;;5074248;28;20052;-83
2022/04/07 03:19:04;;;;;;;13.73;8.65;;;12.00;62.50;;;;;;5056816;28;20475;-85
2022/04/07 03:21:30;;;;;;;14.45;9.80;;;12.60;60.50;;;;;;5056741;28;20051;-85
2022/04/07 03:23:56;;;;;;;15.25;8.80;;;13.30;58.80;;;;;;5056260;28;20386;-84
2022/04/07 03:26:22;;;;;;;12.95;9.45;;;13.80;57.30;;;;;;5074080;28;20020;-86
2022/04/07 03:28:47;;;;;;;15.05;10.15;;;13.90;56.80;;;;;;5074292;28;20032;-86
2022/04/07 03:31:13;;;;;;;14.13;9.68;;;14.10;56.20;;;;;;5074191;28;20103;-87
2022/04/07 03:33:39;;;;;;;15.38;9.90;;;14.40;55.70;;;;;;5074148;28;20036;-86
2022/04/07 03:36:05;;;;;;;13.63;9.52;;;14.60;55.60;;;;;;5074080;28;20040;-87
2022/04/07 03:38:31;;;;;;;11.15;8.60;;;14.70;55.70;;;;;;5074275;28;20047;-86
2022/04/07 03:40:56;;;;;;;15.05;9.18;;;14.80;55.10;;;;;;5055693;28;20066;-86
2022/04/07 03:43:22;;;;;;;14.20;9.10;;;14.90;54.70;;;;;;5056300;28;20530;-86
2022/04/07 03:45:49;;;;;;;17.55;10.40;;;15.00;54.20;;;;;;5074007;28;20475;-86
2022/04/07 03:48:14;;;;;;;17.08;11.10;;;14.90;55.30;;;;;;5073901;28;20357;-87
2022/04/07 03:50:41;;;;;;;17.85;11.07;;;14.80;55.70;;;;;;5070722;28;20463;-79
2022/04/07 03:53:07;;;;;;;12.98;9.43;;;14.80;55.90;;;;;;5061869;28;20044;-83
2022/04/07 03:55:33;;;;;;;13.27;9.25;;;14.80;55.00;;;;;;5053917;28;20025;-80
2022/04/07 03:57:59;;;;;;;14.27;9.38;;;14.70;54.60;;;;;;5054247;28;20025;-86
2022/04/07 04:00:26;;;;;;;14.63;10.18;;;14.50;54.80;;;;;;5073488;28;20104;-84
2022/04/07 04:02:52;;;;;;;12.75;9.25;;;14.20;55.50;;;;;;5065585;28;20103;-84
2022/04/07 04:05:18;;;;;;;14.73;9.98;;;14.30;56.20;;;;;;5036738;28;20111;-85
2022/04/07 04:07:45;;;;;;;15.38;9.70;;;14.40;56.50;;;;;;5060571;28;20127;-84
2022/04/07 04:10:10;;;;;;;14.82;9.13;;;14.50;56.50;;;;;;5064888;28;20107;-86
2022/04/07 04:12:36;;;;;;;14.40;8.73;;;14.50;56.30;;;;;;5061085;28;20527;-82
2022/04/07 04:15:03;;;;;;;16.73;8.85;;;14.70;55.30;;;;;;5059961;28;20391;-82
2022/04/07 04:17:30;;;;;;;13.27;9.00;;;14.30;56.30;;;;;;5070632;28;20013;-84
2022/04/07 04:19:56;;;;;;;12.77;8.43;;;13.90;57.70;;;;;;5060746;28;20121;-86
2022/04/07 04:22:22;;;;;;;12.90;9.15;;;14.00;56.90;;;;;;5063492;28;20099;-85
2022/04/07 04:24:48;;;;;;;12.75;8.40;;;14.10;56.00;;;;;;5063272;28;20024;-85
2022/04/07 04:27:14;;;;;;;11.65;8.07;;;14.50;55.60;;;;;;5049764;28;20021;-80
2022/04/07 04:29:40;;;;;;;11.90;8.82;;;14.50;56.20;;;;;;5053076;28;20032;-81
2022/04/07 04:32:07;;;;;;;11.00;8.15;;;14.50;56.70;;;;;;5066492;28;20078;-79
2022/04/07 04:34:32;;;;;;;12.73;7.93;;;14.30;57.20;;;;;;5051568;28;20033;-85
2022/04/07 04:36:58;;;;;;;10.93;7.30;;;14.30;56.80;;;;;;5064837;28;20017;-78
2022/04/07 04:39:24;;;;;;;10.73;7.05;;;14.10;56.80;;;;;;5073476;28;20437;-84
2022/04/07 04:41:50;;;;;;;11.10;6.85;;;14.40;55.90;;;;;;5069720;28;20013;-82
2022/04/07 04:44:16;;;;;;;9.65;6.70;;;14.50;55.00;;;;;;5072736;28;20204;-82
2022/04/07 04:46:41;;;;;;;11.98;6.82;;;14.80;54.70;;;;;;5066051;28;20029;-84
2022/04/07 04:49:07;;;;;;;11.70;7.80;;;15.00;54.30;;;;;;5072575;28;20085;-84
2022/04/07 04:51:33;;;;;;;11.50;7.30;;;14.70;55.10;;;;;;5055337;28;20024;-82
2022/04/07 04:53:59;;;;;;;10.93;6.60;;;14.30;56.40;;;;;;5069423;28;20034;-84
2022/04/07 04:56:27;;;;;;;10.82;7.30;;;14.70;55.80;;;;;;5055874;28;20365;-81
2022/04/07 04:58:53;;;;;;;11.50;7.65;;;15.30;54.70;;;;;;5053209;28;20036;-84
2022/04/07 05:01:19;;;;;;;13.27;7.93;;;15.70;53.90;;;;;;5053470;28;20108;-87
2022/04/07 05:03:45;;;;;;;12.48;8.38;;;15.90;53.10;;;;;;5053384;28;20112;-83
2022/04/07 05:06:10;;;;;;;11.65;8.40;;;15.90;53.70;;;;;;5053074;28;20025;-87
2022/04/07 05:08:36;;;;;;;13.48;8.77;;;15.80;53.60;;;;;;5052761;28;20533;-82
2022/04/07 05:11:02;;;;;;;10.45;8.10;;;16.00;53.40;;;;;;5051927;28;20025;-87
2022/04/07 05:13:27;;;;;;;12.45;8.63;;;16.10;53.00;;;;;;5053425;28;20025;-80
2022/04/07 05:15:53;;;;;;;12.30;8.70;;;16.10;53.00;;;;;;5056070;28;20460;-83
2022/04/07 05:18:19;;;;;;;12.65;8.82;;;16.00;53.00;;;;;;5055845;28;20028;-79
2022/04/07 05:20:45;;;;;;;16.55;10.60;;;16.10;53.10;;;;;;5056291;28;20025;-84
2022/04/07 05:23:10;;;;;;;14.95;8.98;;;16.30;53.00;;;;;;5056757;28;20032;-87
2022/04/07 05:25:36;;;;;;;14.60;9.00;;;16.40;52.70;;;;;;5056533;28;20025;-85
2022/04/07 05:28:02;;;;;;;12.45;9.05;;;16.60;52.50;;;;;;5056177;28;20040;-81
2022/04/07 05:30:28;;;;;;;13.10;9.55;;;16.50;52.40;;;;;;5056755;28;20152;-86
2022/04/07 05:32:54;;;;;;;12.43;9.07;;;16.10;53.30;;;;;;5056116;28;20104;-86
2022/04/07 05:35:19;;;;;;;12.88;8.80;;;15.80;54.40;;;;;;4705585;28;9999631;-84
2022/04/07 05:37:46;;;;;;;15.70;9.40;;;16.10;53.90;;;;;;5038582;28;20053;-87
2022/04/07 05:40:13;;;;;;;14.05;9.57;;;16.00;53.80;;;;;;5056074;28;20182;-87
2022/04/07 05:42:39;;;;;;;12.32;8.70;;;16.00;53.70;;;;;;5055940;28;20032;-87
2022/04/07 05:45:05;;;;;;;16.55;9.93;;;15.90;55.00;;;;;;5054473;28;20056;-80
2022/04/07 05:47:38;;;;;;;14.27;8.93;;;16.30;54.30;;;;;;5034935;28;20041;-85
2022/04/07 05:50:05;;;;;;;16.88;9.77;;;16.30;54.70;;;;;;5036526;28;20476;-79
2022/04/07 05:52:30;;;;;;;14.23;9.65;;;16.70;53.90;;;;;;5037062;28;20025;-86
2022/04/07 05:54:56;;;;;;;14.75;10.52;;;16.80;53.60;;;;;;5055267;28;20043;-87
2022/04/07 05:57:25;;;;;;;12.57;9.25;;;16.80;53.00;;;;;;5055552;28;20051;-86
2022/04/07 05:59:50;;;;;;;12.27;9.52;;;16.90;53.80;;;;;;5056196;28;20078;-78
2022/04/07 06:02:16;;;;;;;13.70;9.20;;;17.20;53.40;;;;;;5073619;28;20024;-85
2022/04/07 06:04:42;;;;;;;13.17;8.37;;;17.50;52.40;;;;;;4705499;28;9999965;-83
2022/04/07 06:07:07;;;;;;;10.88;8.18;;;17.80;52.00;;;;;;5056157;28;20040;-79
2022/04/07 06:09:34;;;;;;;11.05;7.35;;;17.90;51.80;;;;;;5073786;28;20040;-78
2022/04/07 06:12:00;;;;;;;10.30;7.45;;;18.00;52.00;;;;;;5075007;28;20012;-78
2022/04/07 06:14:26;;;;;;;11.65;7.30;;;18.20;52.00;;;;;;5073648;28;20467;-78
2022/04/07 06:16:52;;;;;;;12.15;8.20;;;18.10;51.20;;;;;;5075081;28;20031;-78
2022/04/07 06:19:17;;;;;;;12.95;8.57;;;17.40;52.30;;;;;;5074714;28;20475;-77
2022/04/07 06:21:43;;;;;;;8.93;5.85;;;17.10;52.70;;;;;;5074831;28;20024;-78
2022/04/07 06:24:09;;;;;;;9.43;6.75;;;17.00;53.00;;;;;;5072938;28;20112;-79
2022/04/07 06:26:35;;;;;;;9.48;6.03;;;17.10;53.10;;;;;;5055393;28;20068;-80
2022/04/07 06:29:00;;;;;;;9.40;6.10;;;17.40;52.00;;;;;;5072870;28;20037;-81
2022/04/07 06:31:26;;;;;;;11.00;5.75;;;17.70;52.00;;;;;;5073748;28;20025;-79
2022/04/07 06:33:52;;;;;;;9.75;6.03;;;17.90;51.70;;;;;;5055976;28;20115;-79
2022/04/07 06:36:18;;;;;;;11.13;7.30;;;18.30;51.20;;;;;;5073323;28;20025;-79
2022/04/07 06:38:43;;;;;;;9.18;6.70;;;18.60;51.00;;;;;;5055862;28;20383;-81
2022/04/07 06:41:11;;;;;;;9.77;6.20;;;18.60;50.90;;;;;;5074550;28;20042;-85
2022/04/07 06:43:36;;;;;;;9.55;7.07;;;18.50;50.70;;;;;;5074649;28;20028;-85
2022/04/07 06:46:02;;;;;;;12.18;7.70;;;18.50;50.60;;;;;;5057163;28;20158;-85
2022/04/07 06:48:27;;;;;;;10.20;7.13;;;18.50;51.20;;;;;;5057018;28;20102;-85
2022/04/07 06:50:53;;;;;;;10.13;7.13;;;18.40;51.50;;;;;;5056613;28;20332;-87
2022/04/07 06:53:19;;;;;;;13.82;6.85;;;18.70;51.50;;;;;;5074754;28;20489;-86
2022/04/07 06:55:44;;;;;;;12.70;6.85;;;19.10;51.50;;;;;;5074553;28;20028;-87
2022/04/07 06:58:11;;;;;;;10.32;7.00;;;19.40;50.80;;;;;;5056822;28;20111;-86
2022/04/07 07:00:45;;;;;;;9.27;6.20;;;19.70;50.60;;;;;;5074253;28;20023;-78
2022/04/07 07:03:12;;;;;;;8.95;6.50;;;20.00;50.30;;;;;;5073935;28;20032;-80
2022/04/07 07:05:38;;;;;;;7.93;6.10;;;20.10;50.10;;;;;;5073994;28;20024;-86
2022/04/07 07:08:18;;;;;;;8.27;5.90;;;20.10;49.50;;;;;;5056127;28;20058;-85
2022/04/07 07:10:45;;;;;;;10.23;5.83;;;19.80;49.50;;;;;;5056404;28;20020;-87
2022/04/07 07:13:12;;;;;;;12.15;6.15;;;18.60;50.40;;;;;;5074118;28;20257;-87
2022/04/07 07:15:39;;;;;;;8.07;5.63;;;18.40;51.80;;;;;;5056356;28;20046;-86
2022/04/07 07:18:05;;;;;;;8.43;6.60;;;19.00;52.70;;;;;;5056290;28;20364;-79
2022/04/07 07:20:31;;;;;;;11.95;8.07;;;19.70;52.40;;;;;;5073989;28;20017;-84
2022/04/07 07:22:56;;;;;;;11.85;7.07;;;20.10;50.70;;;;;;5074178;28;20086;-78
2022/04/07 07:25:22;;;;;;;10.55;7.47;;;20.20;49.50;;;;;;5056077;28;20356;-85
2022/04/07 07:27:48;;;;;;;9.93;7.40;;;19.90;49.40;;;;;;5073831;28;20064;-85
2022/04/07 07:30:16;;;;;;;10.70;7.30;;;20.20;50.10;;;;;;5074015;28;20099;-80
2022/04/07 07:32:46;;;;;;;13.43;7.63;;;20.50;49.50;;;;;;5074450;28;20058;-80
2022/04/07 07:35:13;;;;;;;13.13;8.05;;;20.80;48.60;;;;;;5074303;28;20074;-85
2022/04/07 07:37:48;;;;;;;9.90;7.05;;;21.00;48.40;;;;;;5073135;28;20435;-87
2022/04/07 07:40:13;;;;;;;9.35;6.68;;;21.10;47.90;;;;;;5074435;28;20043;-87
2022/04/07 07:42:40;;;;;;;8.20;6.20;;;21.00;48.20;;;;;;5074086;28;20052;-87
2022/04/07 07:45:07;;;;;;;9.98;6.72;;;20.90;47.40;;;;;;5056004;28;20029;-84
2022/04/07 07:47:33;;;;;;;8.57;6.25;;;20.70;48.00;;;;;;5073717;28;20117;-86
2022/04/07 07:50:00;;;;;;;10.45;7.03;;;20.80;48.50;;;;;;5056211;28;20494;-86
2022/04/07 07:52:25;;;;;;;10.88;6.20;;;21.00;47.50;;;;;;5073257;28;20032;-87
2022/04/07 07:54:51;;;;;;;11.95;7.47;;;20.30;48.50;;;;;;5073864;28;20017;-84
2022/04/07 07:57:18;;;;;;;10.23;6.80;;;20.70;48.70;;;;;;5055691;28;20466;-81
2022/04/07 07:59:44;;;;;;;9.70;6.80;;;21.60;47.50;;;;;;5073445;28;20025;-80
2022/04/07 08:02:10;;;;;;;11.95;7.88;;;22.20;46.60;;;;;;4369001;28;10000274;-82
2022/04/07 08:04:35;;;;;;;10.65;7.55;;;22.80;46.10;;;;;;5070695;28;20456;-87
2022/04/07 08:07:01;;;;;;;11.23;6.47;;;23.10;45.10;;;;;;5071868;28;20031;-83
2022/04/07 08:09:27;;;;;;;8.95;6.47;;;23.30;45.40;;;;;;5054974;28;20056;-87
2022/04/07 08:11:52;;;;;;;8.68;6.03;;;23.20;45.10;;;;;;5073417;28;20483;-86
2022/04/07 08:14:18;;;;;;;8.95;6.57;;;22.90;45.90;;;;;;5073196;28;20356;-87
2022/04/07 08:16:44;;;;;;;14.02;6.20;;;22.90;45.30;;;;;;5073163;28;20353;-82
2022/04/07 08:19:09;;;;;;;9.82;6.35;;;22.80;44.80;;;;;;5072993;28;20035;-82
2022/04/07 08:21:37;;;;;;;8.40;5.88;;;22.80;45.60;;;;;;5073320;28;20436;-87
2022/04/07 08:24:03;;;;;;;9.27;6.30;;;22.60;44.80;;;;;;5055064;28;20025;-79
2022/04/07 08:26:29;;;;;;;11.50;6.90;;;22.60;45.30;;;;;;5055268;28;20025;-86
2022/04/07 08:28:54;;;;;;;12.07;7.45;;;22.50;45.30;;;;;;5072698;28;20036;-80
2022/04/07 08:31:20;;;;;;;13.20;7.45;;;22.50;46.00;;;;;;5072925;28;20032;-80
2022/04/07 08:33:47;;;;;;;11.18;6.70;;;22.50;45.60;;;;;;5073148;28;20081;-80
2022/04/07 08:36:13;;;;;;;9.93;6.60;;;22.40;45.40;;;;;;5073096;28;20017;-86
2022/04/07 08:38:38;;;;;;;12.90;6.60;;;22.20;45.80;;;;;;5072679;28;20036;-79
2022/04/07 08:41:09;;;;;;;10.40;6.50;;;21.70;46.60;;;;;;5073087;28;20029;-79
2022/04/07 08:43:38;;;;;;;8.85;6.22;;;21.80;47.00;;;;;;5072682;28;20394;-79
2022/04/07 08:46:08;;;;;;;9.35;6.63;;;22.00;47.10;;;;;;5055092;28;20039;-79
2022/04/07 08:48:40;;;;;;;10.32;6.25;;;22.10;45.80;;;;;;5055519;28;20501;-86
2022/04/07 08:51:06;;;;;;;9.43;6.15;;;21.20;47.00;;;;;;5075775;28;20062;-81
2022/04/07 08:53:33;;;;;;;9.00;6.50;;;20.00;48.30;;;;;;5076517;28;20032;-86
2022/04/07 08:56:04;;;;;;;8.70;5.70;;;19.10;49.90;;;;;;5058723;28;20020;-85
2022/04/07 08:58:30;;;;;;;10.13;6.30;;;19.10;50.00;;;;;;5058664;28;20036;-78
2022/04/07 09:00:56;;;;;;;8.63;6.30;;;19.30;49.70;;;;;;5076017;28;20032;-79
2022/04/07 09:03:22;;;;;;;11.05;6.10;;;19.40;49.50;;;;;;5058111;28;20033;-81
2022/04/07 09:05:53;;;;;;;9.45;6.25;;;19.50;49.20;;;;;;5076378;28;20024;-86
2022/04/07 09:08:18;;;;;;;10.65;7.43;;;19.90;49.00;;;;;;5075967;28;20101;-85
2022/04/07 09:10:53;;;;;;;12.45;8.63;;;20.30;48.00;;;;;;5076733;28;20028;-85
2022/04/07 09:13:19;;;;;;;18.08;10.98;;;20.80;48.10;;;;;;5058360;28;20471;-80
2022/04/07 09:15:46;;;;;;;16.88;10.38;;;20.60;46.60;;;;;;5076134;28;20020;-85
2022/04/07 09:18:11;;;;;;;14.05;9.05;;;20.20;47.50;;;;;;5075959;28;20028;-79
2022/04/07 09:20:43;;;;;;;10.50;7.85;;;20.30;47.90;;;;;;5076037;28;20020;-79
2022/04/07 09:23:11;;;;;;;12.52;8.25;;;20.50;47.70;;;;;;5057854;28;20087;-79
2022/04/07 09:25:43;;;;;;;10.73;7.45;;;20.90;47.30;;;;;;5076207;28;20483;-84
2022/04/07 09:28:11;;;;;;;13.57;7.70;;;21.00;47.50;;;;;;5075496;28;20037;-80
2022/04/07 09:30:38;;;;;;;13.73;7.70;;;20.90;48.40;;;;;;5075982;28;20020;-80
2022/04/07 09:33:03;;;;;;;10.80;7.07;;;21.10;48.00;;;;;;5057721;28;20036;-80
2022/04/07 09:35:29;;;;;;;9.63;6.60;;;21.40;47.40;;;;;;5075848;28;20050;-79
2022/04/07 09:38:01;;;;;;;10.55;7.50;;;21.70;47.30;;;;;;5075564;28;20032;-79
2022/04/07 09:40:28;;;;;;;13.77;8.63;;;21.90;47.20;;;;;;5076302;28;20020;-80
2022/04/07 09:42:58;;;;;;;12.25;8.40;;;22.10;47.40;;;;;;5057321;28;20025;-79
2022/04/07 09:45:24;;;;;;;12.57;9.00;;;22.10;46.80;;;;;;5058037;28;20021;-81
2022/04/07 09:47:50;;;;;;;15.07;9.25;;;22.20;47.40;;;;;;5075293;28;20035;-80
2022/04/07 09:50:23;;;;;;;14.18;9.30;;;22.40;46.80;;;;;;5056876;28;20538;-79
2022/04/07 09:53:02;;;;;;;21.38;8.50;;;21.90;46.90;;;;;;5075280;28;20111;-85
2022/04/07 09:55:37;;;;;;;12.82;7.72;;;21.60;47.30;;;;;;5057555;28;20375;-80
2022/04/07 09:58:04;;;;;;;18.77;8.50;;;21.70;47.00;;;;;;5057622;28;20025;-80
2022/04/07 10:00:31;;;;;;;14.98;9.80;;;21.60;47.10;;;;;;5075767;28;20471;-80
2022/04/07 10:02:57;;;;;;;17.05;11.85;;;21.40;47.80;;;;;;5057298;28;20028;-82
2022/04/07 10:05:24;;;;;;;16.52;12.23;;;21.40;47.70;;;;;;5057074;28;20104;-79
2022/04/07 10:07:50;;;;;;;18.23;12.88;;;21.40;47.90;;;;;;5057328;28;20394;-80
2022/04/07 10:10:18;;;;;;;17.00;11.90;;;21.70;47.90;;;;;;5074850;28;20043;-80
2022/04/07 10:12:46;;;;;;;15.25;10.77;;;21.90;47.10;;;;;;5057123;28;20029;-80
2022/04/07 10:15:11;;;;;;;15.38;9.50;;;22.20;46.80;;;;;;5075145;28;20501;-85
2022/04/07 10:17:39;;;;;;;15.07;9.38;;;22.90;45.80;;;;;;5074543;28;20032;-80
2022/04/07 10:20:08;;;;;;;17.15;9.02;;;23.40;45.50;;;;;;5074973;28;20103;-79
2022/04/07 10:23:01;;;;;;;11.05;7.82;;;24.00;44.90;;;;;;5075014;28;20020;-82
2022/04/07 10:25:29;;;;;;;10.70;7.88;;;24.30;42.90;;;;;;5056913;28;20021;-82
2022/04/07 10:28:00;;;;;;;11.68;7.85;;;23.90;43.30;;;;;;5056864;28;20037;-86
2022/04/07 10:30:29;;;;;;;10.75;7.57;;;23.80;43.70;;;;;;5056573;28;20035;-80
2022/04/07 10:32:58;;;;;;;9.80;6.82;;;23.90;43.50;;;;;;5074600;28;20108;-86
2022/04/07 10:35:30;;;;;;;9.20;6.60;;;24.10;43.70;;;;;;5075128;28;20019;-81
2022/04/07 10:38:00;;;;;;;10.82;5.95;;;24.40;42.90;;;;;;5074985;28;20033;-82
2022/04/07 10:40:35;;;;;;;8.15;5.63;;;24.80;43.00;;;;;;5056823;28;20127;-79
2022/04/07 10:43:07;;;;;;;8.38;5.72;;;25.00;42.00;;;;;;5056078;28;20028;-80
2022/04/07 10:45:33;;;;;;;10.20;6.35;;;25.60;41.90;;;;;;5074201;28;20048;-80
2022/04/07 10:48:23;;;;;;;8.95;6.00;;;25.50;41.60;;;;;;5074150;28;20484;-81
2022/04/07 10:51:04;;;;;;;9.88;5.97;;;25.80;41.10;;;;;;5074121;28;20095;-82
2022/04/07 10:54:02;;;;;;;8.85;5.88;;;26.20;41.30;;;;;;5073797;28;20028;-82
2022/04/07 10:56:35;;;;;;;14.82;6.47;;;26.30;40.70;;;;;;5045732;28;20398;-79
2022/04/07 10:59:22;;;;;;;7.72;5.55;;;26.50;40.90;;;;;;5056138;28;20529;-79
2022/04/07 11:02:04;;;;;;;7.43;5.53;;;26.70;41.00;;;;;;5074176;28;20099;-82
2022/04/07 11:04:29;;;;;;;9.70;6.82;;;26.50;40.70;;;;;;5055828;28;20447;-82
2022/04/07 11:07:16;;;;;;;9.75;6.25;;;26.40;40.90;;;;;;5074410;28;20509;-87
2022/04/07 11:09:55;;;;;;;7.95;4.85;;;26.50;40.20;;;;;;5055661;28;20052;-80
2022/04/07 11:12:23;;;;;;;9.38;4.80;;;26.50;39.40;;;;;;5055210;28;20395;-85
2022/04/07 11:14:51;;;;;;;7.85;4.65;;;26.10;39.30;;;;;;5073560;28;20025;-85
2022/04/07 11:17:30;;;;;;;6.45;4.40;;;25.50;39.80;;;;;;5055734;28;20031;-87
2022/04/07 11:20:24;;;;;;;10.77;5.00;;;25.70;39.80;;;;;;5073572;28;20025;-84
2022/04/07 11:22:54;;;;;;;8.15;5.70;;;25.20;40.60;;;;;;5073509;28;20020;-81
2022/04/07 11:25:33;;;;;;;7.95;5.50;;;25.60;42.50;;;;;;5055625;28;20111;-84
2022/04/07 11:28:14;;;;;;;8.10;5.20;;;25.80;41.70;;;;;;5073921;28;20382;-87
2022/04/07 11:31:00;;;;;;;8.15;5.28;;;26.20;40.10;;;;;;5055889;28;20031;-79
2022/04/07 11:33:27;;;;;;;7.28;4.95;;;25.60;40.30;;;;;;5073570;28;20039;-84
2022/04/07 11:35:59;;;;;;;7.63;5.30;;;25.60;40.70;;;;;;5073720;28;20050;-87
2022/04/07 11:38:34;;;;;;;7.68;5.32;;;25.60;41.00;;;;;;5073345;28;20028;-88
2022/04/07 11:41:02;;;;;;;10.07;5.60;;;25.40;43.60;;;;;;5073265;28;20063;-80
2022/04/07 11:43:28;;;;;;;9.50;5.50;;;25.00;41.30;;;;;;5073293;28;20029;-81
2022/04/07 11:45:55;;;;;;;7.05;4.88;;;24.40;41.50;;;;;;5073854;28;20065;-80
2022/04/07 11:48:21;;;;;;;7.55;4.78;;;23.60;42.40;;;;;;5055165;28;20082;-84
2022/04/07 11:50:46;;;;;;;8.50;5.20;;;22.20;44.20;;;;;;5055863;28;20110;-79
2022/04/07 11:53:12;;;;;;;10.60;7.35;;;21.80;45.10;;;;;;5073742;28;20464;-83
2022/04/07 11:55:38;;;;;;;7.60;5.03;;;21.80;45.00;;;;;;5073012;28;20038;-78
2022/04/07 11:58:04;;;;;;;7.93;4.63;;;22.20;43.60;;;;;;5055648;28;20040;-78
2022/04/07 12:00:30;;;;;;;12.98;5.18;;;22.30;44.80;;;;;;5055429;28;20044;-85
2022/04/07 12:03:00;;;;;;;8.05;5.70;;;22.90;44.40;;;;;;5055204;28;20032;-86
2022/04/07 12:05:27;;;;;;;6.82;5.10;;;23.70;46.10;;;;;;5055313;28;20123;-87
2022/04/07 12:07:54;;;;;;;8.43;5.03;;;24.20;42.80;;;;;;5055197;28;20033;-82
2022/04/07 12:10:20;;;;;;;7.03;4.97;;;24.20;43.10;;;;;;5054710;28;20032;-86
2022/04/07 12:12:46;;;;;;;7.60;4.75;;;24.80;42.90;;;;;;5055458;28;20028;-80
2022/04/07 12:15:15;;;;;;;9.45;5.18;;;25.10;41.90;;;;;;5072903;28;20067;-88
2022/04/07 12:18:00;;;;;;;6.45;4.70;;;25.40;41.20;;;;;;5073689;28;20408;-87
2022/04/07 12:20:26;;;;;;;7.32;5.05;;;25.30;41.20;;;;;;5073171;28;20479;-87
2022/04/07 12:23:11;;;;;;;8.85;4.80;;;24.50;41.30;;;;;;5073344;28;20021;-84
2022/04/07 12:25:38;;;;;;;7.15;4.95;;;23.70;41.80;;;;;;5077484;28;20158;-79
2022/04/07 12:28:17;;;;;;;8.95;4.80;;;23.10;42.90;;;;;;5077124;28;20064;-79
2022/04/07 12:30:53;;;;;;;7.90;4.55;;;23.70;43.00;;;;;;5072372;28;20494;-87
2022/04/07 12:33:42;;;;;;;6.47;4.57;;;24.30;43.40;;;;;;5076713;28;20471;-86
2022/04/07 12:36:26;;;;;;;6.18;4.43;;;24.70;41.60;;;;;;5059235;28;20115;-87
2022/04/07 12:39:00;;;;;;;9.63;4.55;;;24.90;41.70;;;;;;5058616;28;20029;-79
2022/04/07 12:41:40;;;;;;;7.50;4.80;;;25.10;41.10;;;;;;5058591;28;20119;-80